sensor_id;sensor_type;location;lat;lon;timestamp;P1;durP1;ratioP1;P2;durP2;ratioP2
51981;SDS011;37998;53.416;6.730;2022-09-21T00:00:51;5.20;;;3.28;;
51981;SDS011;37998;53.416;6.730;2022-09-21T00:03:17;5.20;;;2.38;;
51981;SDS011;37998;53.416;6.730;2022-09-21T00:05:43;5.75;;;2.58;;
51981;SDS011;37998;53.416;6.730;2022-09-21T00:08:09;8.90;;;2.40;;
51981;SDS011;37998;53.416;6.730;2022-09-21T00:10:37;4.85;;;2.50;;
51981;SDS011;37998;53.416;6.730;2022-09-21T00:13:03;4.85;;;2.47;;
51981;SDS011;37998;53.416;6.730;2022-09-21T00:15:30;5.78;;;2.58;;
51981;SDS011;37998;53.416;6.730;2022-09-21T00:17:56;5.85;;;2.30;;
51981;SDS011;37998;53.416;6.730;2022-09-21T00:20:24;8.63;;;2.40;;
51981;SDS011;37998;53.416;6.730;2022-09-21T00:22:50;4.07;;;2.03;;
51981;SDS011;37998;53.416;6.730;2022-09-21T00:25:17;4.80;;;2.50;;
51981;SDS011;37998;53.416;6.730;2022-09-21T00:27:43;6.35;;;2.53;;
51981;SDS011;37998;53.416;6.730;2022-09-21T00:30:15;7.63;;;2.33;;
51981;SDS011;37998;53.416;6.730;2022-09-21T00:32:42;5.88;;;2.33;;
51981;SDS011;37998;53.416;6.730;2022-09-21T00:35:07;8.88;;;2.20;;
51981;SDS011;37998;53.416;6.730;2022-09-21T00:37:34;5.55;;;2.40;;
51981;SDS011;37998;53.416;6.730;2022-09-21T00:40:00;5.72;;;2.95;;
51981;SDS011;37998;53.416;6.730;2022-09-21T00:42:29;6.15;;;2.50;;
51981;SDS011;37998;53.416;6.730;2022-09-21T00:44:59;8.23;;;2.40;;
51981;SDS011;37998;53.416;6.730;2022-09-21T00:47:40;5.80;;;2.60;;
51981;SDS011;37998;53.416;6.730;2022-09-21T00:50:09;6.07;;;2.63;;
51981;SDS011;37998;53.416;6.730;2022-09-21T00:52:41;5.30;;;2.65;;
51981;SDS011;37998;53.416;6.730;2022-09-21T00:55:20;7.22;;;2.78;;
51981;SDS011;37998;53.416;6.730;2022-09-21T00:57:51;5.85;;;2.78;;
51981;SDS011;37998;53.416;6.730;2022-09-21T01:00:21;5.13;;;2.55;;
51981;SDS011;37998;53.416;6.730;2022-09-21T01:02:47;5.30;;;2.90;;
51981;SDS011;37998;53.416;6.730;2022-09-21T01:05:13;7.25;;;2.70;;
51981;SDS011;37998;53.416;6.730;2022-09-21T01:07:40;9.05;;;3.03;;
51981;SDS011;37998;53.416;6.730;2022-09-21T01:10:12;8.77;;;2.55;;
51981;SDS011;37998;53.416;6.730;2022-09-21T01:12:56;6.78;;;2.95;;
51981;SDS011;37998;53.416;6.730;2022-09-21T01:15:39;7.22;;;2.20;;
51981;SDS011;37998;53.416;6.730;2022-09-21T01:31:23;4.93;;;2.50;;
51981;SDS011;37998;53.416;6.730;2022-09-21T01:33:53;7.13;;;2.60;;
51981;SDS011;37998;53.416;6.730;2022-09-21T01:36:26;9.88;;;2.55;;
51981;SDS011;37998;53.416;6.730;2022-09-21T01:38:55;9.35;;;2.88;;
51981;SDS011;37998;53.416;6.730;2022-09-21T01:41:25;6.68;;;2.55;;
51981;SDS011;37998;53.416;6.730;2022-09-21T01:44:02;6.75;;;2.80;;
51981;SDS011;37998;53.416;6.730;2022-09-21T01:46:33;6.95;;;3.03;;
51981;SDS011;37998;53.416;6.730;2022-09-21T01:49:03;9.38;;;3.30;;
51981;SDS011;37998;53.416;6.730;2022-09-21T01:51:34;7.55;;;3.42;;
51981;SDS011;37998;53.416;6.730;2022-09-21T01:54:04;10.57;;;3.70;;
51981;SDS011;37998;53.416;6.730;2022-09-21T01:56:48;12.35;;;4.45;;
51981;SDS011;37998;53.416;6.730;2022-09-21T02:02:01;9.13;;;3.53;;
51981;SDS011;37998;53.416;6.730;2022-09-21T02:04:33;10.65;;;2.90;;
51981;SDS011;37998;53.416;6.730;2022-09-21T02:06:59;7.40;;;2.97;;
51981;SDS011;37998;53.416;6.730;2022-09-21T02:09:25;7.10;;;2.88;;
51981;SDS011;37998;53.416;6.730;2022-09-21T02:11:52;9.85;;;3.22;;
51981;SDS011;37998;53.416;6.730;2022-09-21T02:14:21;5.75;;;2.75;;
51981;SDS011;37998;53.416;6.730;2022-09-21T02:17:12;7.18;;;3.25;;
51981;SDS011;37998;53.416;6.730;2022-09-21T02:20:00;7.03;;;2.78;;
51981;SDS011;37998;53.416;6.730;2022-09-21T02:22:53;3.67;;;2.42;;
51981;SDS011;37998;53.416;6.730;2022-09-21T02:25:30;8.60;;;3.00;;
51981;SDS011;37998;53.416;6.730;2022-09-21T02:28:07;11.20;;;3.28;;
51981;SDS011;37998;53.416;6.730;2022-09-21T02:30:45;6.68;;;3.00;;
51981;SDS011;37998;53.416;6.730;2022-09-21T02:33:25;9.55;;;3.10;;
51981;SDS011;37998;53.416;6.730;2022-09-21T02:36:06;6.65;;;2.83;;
51981;SDS011;37998;53.416;6.730;2022-09-21T02:38:46;5.28;;;2.90;;
51981;SDS011;37998;53.416;6.730;2022-09-21T02:41:20;7.00;;;2.80;;
51981;SDS011;37998;53.416;6.730;2022-09-21T02:43:58;5.10;;;2.70;;
51981;SDS011;37998;53.416;6.730;2022-09-21T02:46:33;7.38;;;3.38;;
51981;SDS011;37998;53.416;6.730;2022-09-21T02:49:08;8.15;;;3.08;;
51981;SDS011;37998;53.416;6.730;2022-09-21T02:51:39;8.45;;;3.33;;
51981;SDS011;37998;53.416;6.730;2022-09-21T02:56:38;10.70;;;2.78;;
51981;SDS011;37998;53.416;6.730;2022-09-21T02:59:06;6.15;;;2.92;;
51981;SDS011;37998;53.416;6.730;2022-09-21T03:01:32;7.43;;;3.05;;
51981;SDS011;37998;53.416;6.730;2022-09-21T03:03:58;4.88;;;2.50;;
51981;SDS011;37998;53.416;6.730;2022-09-21T03:06:25;10.98;;;3.50;;
51981;SDS011;37998;53.416;6.730;2022-09-21T03:08:51;9.48;;;3.58;;
51981;SDS011;37998;53.416;6.730;2022-09-21T03:11:17;10.90;;;3.33;;
51981;SDS011;37998;53.416;6.730;2022-09-21T03:13:43;8.13;;;2.95;;
51981;SDS011;37998;53.416;6.730;2022-09-21T03:16:09;10.77;;;3.00;;
51981;SDS011;37998;53.416;6.730;2022-09-21T03:18:36;10.77;;;3.60;;
51981;SDS011;37998;53.416;6.730;2022-09-21T03:21:02;8.15;;;3.15;;
51981;SDS011;37998;53.416;6.730;2022-09-21T03:23:28;8.63;;;3.28;;
51981;SDS011;37998;53.416;6.730;2022-09-21T03:25:54;11.40;;;3.85;;
51981;SDS011;37998;53.416;6.730;2022-09-21T03:28:20;6.88;;;3.33;;
51981;SDS011;37998;53.416;6.730;2022-09-21T03:30:47;11.77;;;3.40;;
51981;SDS011;37998;53.416;6.730;2022-09-21T03:33:14;6.30;;;2.70;;
51981;SDS011;37998;53.416;6.730;2022-09-21T03:35:41;9.63;;;2.90;;
51981;SDS011;37998;53.416;6.730;2022-09-21T03:38:07;5.65;;;2.90;;
51981;SDS011;37998;53.416;6.730;2022-09-21T03:40:33;5.63;;;2.70;;
51981;SDS011;37998;53.416;6.730;2022-09-21T03:42:59;5.03;;;2.92;;
51981;SDS011;37998;53.416;6.730;2022-09-21T03:45:24;6.93;;;2.70;;
51981;SDS011;37998;53.416;6.730;2022-09-21T03:47:56;8.52;;;3.05;;
51981;SDS011;37998;53.416;6.730;2022-09-21T03:50:24;7.93;;;2.97;;
51981;SDS011;37998;53.416;6.730;2022-09-21T03:52:52;5.68;;;2.60;;
51981;SDS011;37998;53.416;6.730;2022-09-21T03:55:17;4.80;;;2.45;;
51981;SDS011;37998;53.416;6.730;2022-09-21T03:57:43;8.65;;;3.28;;
51981;SDS011;37998;53.416;6.730;2022-09-21T04:00:09;8.00;;;2.80;;
51981;SDS011;37998;53.416;6.730;2022-09-21T04:02:36;7.95;;;2.72;;
51981;SDS011;37998;53.416;6.730;2022-09-21T04:05:04;5.28;;;3.17;;
51981;SDS011;37998;53.416;6.730;2022-09-21T04:07:35;4.97;;;2.85;;
51981;SDS011;37998;53.416;6.730;2022-09-21T04:10:05;7.03;;;3.30;;
51981;SDS011;37998;53.416;6.730;2022-09-21T04:12:32;6.25;;;2.92;;
51981;SDS011;37998;53.416;6.730;2022-09-21T04:14:59;4.95;;;2.40;;
51981;SDS011;37998;53.416;6.730;2022-09-21T04:17:25;5.40;;;2.72;;
51981;SDS011;37998;53.416;6.730;2022-09-21T04:19:51;9.65;;;2.72;;
51981;SDS011;37998;53.416;6.730;2022-09-21T04:22:17;6.05;;;2.83;;
51981;SDS011;37998;53.416;6.730;2022-09-21T04:24:43;7.93;;;2.80;;
51981;SDS011;37998;53.416;6.730;2022-09-21T04:27:09;6.65;;;2.90;;
51981;SDS011;37998;53.416;6.730;2022-09-21T04:29:35;10.77;;;2.83;;
51981;SDS011;37998;53.416;6.730;2022-09-21T04:32:02;8.57;;;2.85;;
51981;SDS011;37998;53.416;6.730;2022-09-21T04:34:29;6.38;;;2.47;;
51981;SDS011;37998;53.416;6.730;2022-09-21T04:36:55;4.65;;;2.30;;
51981;SDS011;37998;53.416;6.730;2022-09-21T04:39:22;3.85;;;2.67;;
51981;SDS011;37998;53.416;6.730;2022-09-21T04:41:48;5.00;;;2.50;;
51981;SDS011;37998;53.416;6.730;2022-09-21T04:44:14;5.80;;;2.70;;
51981;SDS011;37998;53.416;6.730;2022-09-21T04:46:40;6.97;;;2.88;;
51981;SDS011;37998;53.416;6.730;2022-09-21T04:49:06;6.68;;;2.75;;
51981;SDS011;37998;53.416;6.730;2022-09-21T04:51:32;3.97;;;2.70;;
51981;SDS011;37998;53.416;6.730;2022-09-21T04:53:58;8.02;;;2.72;;
51981;SDS011;37998;53.416;6.730;2022-09-21T04:56:24;7.15;;;2.55;;
51981;SDS011;37998;53.416;6.730;2022-09-21T04:58:50;6.57;;;2.40;;
51981;SDS011;37998;53.416;6.730;2022-09-21T05:01:15;2.88;;;2.58;;
51981;SDS011;37998;53.416;6.730;2022-09-21T05:03:41;5.47;;;2.33;;
51981;SDS011;37998;53.416;6.730;2022-09-21T05:06:06;3.40;;;2.53;;
51981;SDS011;37998;53.416;6.730;2022-09-21T05:08:33;3.22;;;2.20;;
51981;SDS011;37998;53.416;6.730;2022-09-21T05:11:18;4.45;;;2.42;;
51981;SDS011;37998;53.416;6.730;2022-09-21T05:13:44;5.25;;;2.45;;
51981;SDS011;37998;53.416;6.730;2022-09-21T05:16:10;4.75;;;2.85;;
51981;SDS011;37998;53.416;6.730;2022-09-21T05:18:36;9.68;;;2.90;;
51981;SDS011;37998;53.416;6.730;2022-09-21T05:21:02;5.03;;;3.00;;
51981;SDS011;37998;53.416;6.730;2022-09-21T05:23:29;7.80;;;2.50;;
51981;SDS011;37998;53.416;6.730;2022-09-21T05:25:55;7.10;;;2.72;;
51981;SDS011;37998;53.416;6.730;2022-09-21T05:28:22;2.50;;;2.22;;
51981;SDS011;37998;53.416;6.730;2022-09-21T05:31:37;4.90;;;2.67;;
51981;SDS011;37998;53.416;6.730;2022-09-21T05:33:36;5.47;;;2.85;;
51981;SDS011;37998;53.416;6.730;2022-09-21T05:39:08;4.03;;;2.80;;
51981;SDS011;37998;53.416;6.730;2022-09-21T05:41:34;7.13;;;2.60;;
51981;SDS011;37998;53.416;6.730;2022-09-21T05:44:00;6.30;;;2.28;;
51981;SDS011;37998;53.416;6.730;2022-09-21T05:49:11;4.55;;;2.83;;
51981;SDS011;37998;53.416;6.730;2022-09-21T05:51:59;5.90;;;2.45;;
51981;SDS011;37998;53.416;6.730;2022-09-21T06:05:47;6.32;;;3.05;;
51981;SDS011;37998;53.416;6.730;2022-09-21T06:08:13;13.05;;;3.28;;
51981;SDS011;37998;53.416;6.730;2022-09-21T06:10:39;16.25;;;3.80;;
51981;SDS011;37998;53.416;6.730;2022-09-21T06:13:05;51.67;;;5.47;;
51981;SDS011;37998;53.416;6.730;2022-09-21T06:15:31;41.28;;;6.30;;
51981;SDS011;37998;53.416;6.730;2022-09-21T06:18:02;43.10;;;5.85;;
51981;SDS011;37998;53.416;6.730;2022-09-21T06:20:29;41.40;;;5.50;;
51981;SDS011;37998;53.416;6.730;2022-09-21T06:23:05;63.45;;;5.65;;
51981;SDS011;37998;53.416;6.730;2022-09-21T06:25:32;34.40;;;5.70;;
51981;SDS011;37998;53.416;6.730;2022-09-21T06:28:02;32.90;;;4.13;;
51981;SDS011;37998;53.416;6.730;2022-09-21T06:30:33;18.80;;;4.18;;
51981;SDS011;37998;53.416;6.730;2022-09-21T06:33:00;16.30;;;3.75;;
51981;SDS011;37998;53.416;6.730;2022-09-21T06:35:29;7.95;;;3.38;;
51981;SDS011;37998;53.416;6.730;2022-09-21T06:37:59;11.15;;;3.15;;
51981;SDS011;37998;53.416;6.730;2022-09-21T06:40:29;10.38;;;3.47;;
51981;SDS011;37998;53.416;6.730;2022-09-21T06:42:56;8.52;;;3.25;;
51981;SDS011;37998;53.416;6.730;2022-09-21T06:45:23;7.63;;;3.20;;
51981;SDS011;37998;53.416;6.730;2022-09-21T06:47:52;5.72;;;3.40;;
51981;SDS011;37998;53.416;6.730;2022-09-21T06:50:18;7.75;;;3.97;;
51981;SDS011;37998;53.416;6.730;2022-09-21T06:52:44;20.40;;;4.25;;
51981;SDS011;37998;53.416;6.730;2022-09-21T06:55:11;8.45;;;3.70;;
51981;SDS011;37998;53.416;6.730;2022-09-21T06:57:37;9.65;;;3.45;;
51981;SDS011;37998;53.416;6.730;2022-09-21T07:00:04;6.85;;;3.38;;
51981;SDS011;37998;53.416;6.730;2022-09-21T07:02:31;13.23;;;3.78;;
51981;SDS011;37998;53.416;6.730;2022-09-21T07:04:57;9.50;;;3.60;;
51981;SDS011;37998;53.416;6.730;2022-09-21T07:07:23;9.27;;;3.42;;
51981;SDS011;37998;53.416;6.730;2022-09-21T07:09:49;10.38;;;3.88;;
51981;SDS011;37998;53.416;6.730;2022-09-21T07:12:16;14.57;;;3.78;;
51981;SDS011;37998;53.416;6.730;2022-09-21T07:14:42;9.93;;;3.83;;
51981;SDS011;37998;53.416;6.730;2022-09-21T07:17:10;11.80;;;5.00;;
51981;SDS011;37998;53.416;6.730;2022-09-21T07:19:37;12.35;;;3.97;;
51981;SDS011;37998;53.416;6.730;2022-09-21T07:22:03;9.32;;;3.65;;
51981;SDS011;37998;53.416;6.730;2022-09-21T07:24:29;10.15;;;4.10;;
51981;SDS011;37998;53.416;6.730;2022-09-21T07:26:54;9.00;;;4.00;;
51981;SDS011;37998;53.416;6.730;2022-09-21T07:29:20;7.22;;;3.67;;
51981;SDS011;37998;53.416;6.730;2022-09-21T07:31:46;10.90;;;3.55;;
51981;SDS011;37998;53.416;6.730;2022-09-21T07:34:12;6.68;;;3.30;;
51981;SDS011;37998;53.416;6.730;2022-09-21T07:36:38;9.60;;;3.72;;
51981;SDS011;37998;53.416;6.730;2022-09-21T07:39:04;8.55;;;3.35;;
51981;SDS011;37998;53.416;6.730;2022-09-21T07:41:30;6.70;;;3.55;;
51981;SDS011;37998;53.416;6.730;2022-09-21T07:43:56;8.38;;;3.72;;
51981;SDS011;37998;53.416;6.730;2022-09-21T07:46:21;9.35;;;3.28;;
51981;SDS011;37998;53.416;6.730;2022-09-21T07:48:47;7.35;;;3.15;;
51981;SDS011;37998;53.416;6.730;2022-09-21T07:51:14;14.18;;;3.65;;
51981;SDS011;37998;53.416;6.730;2022-09-21T07:53:41;6.75;;;2.63;;
51981;SDS011;37998;53.416;6.730;2022-09-21T07:56:09;9.40;;;3.35;;
51981;SDS011;37998;53.416;6.730;2022-09-21T07:58:37;6.97;;;2.38;;
51981;SDS011;37998;53.416;6.730;2022-09-21T08:01:29;10.82;;;2.53;;
51981;SDS011;37998;53.416;6.730;2022-09-21T08:03:56;11.02;;;2.80;;
51981;SDS011;37998;53.416;6.730;2022-09-21T08:06:23;9.75;;;2.65;;
51981;SDS011;37998;53.416;6.730;2022-09-21T08:08:51;8.95;;;2.42;;
51981;SDS011;37998;53.416;6.730;2022-09-21T08:11:18;5.85;;;2.45;;
51981;SDS011;37998;53.416;6.730;2022-09-21T08:13:51;8.15;;;2.20;;
51981;SDS011;37998;53.416;6.730;2022-09-21T08:16:18;8.25;;;1.90;;
51981;SDS011;37998;53.416;6.730;2022-09-21T08:18:43;14.20;;;2.60;;
51981;SDS011;37998;53.416;6.730;2022-09-21T08:21:10;10.27;;;2.10;;
51981;SDS011;37998;53.416;6.730;2022-09-21T08:23:36;5.50;;;2.17;;
51981;SDS011;37998;53.416;6.730;2022-09-21T08:26:05;7.65;;;2.10;;
51981;SDS011;37998;53.416;6.730;2022-09-21T08:28:32;7.15;;;2.20;;
51981;SDS011;37998;53.416;6.730;2022-09-21T08:31:00;7.38;;;2.55;;
51981;SDS011;37998;53.416;6.730;2022-09-21T08:33:26;8.48;;;1.77;;
51981;SDS011;37998;53.416;6.730;2022-09-21T08:35:53;8.10;;;2.55;;
51981;SDS011;37998;53.416;6.730;2022-09-21T08:38:20;5.57;;;2.05;;
51981;SDS011;37998;53.416;6.730;2022-09-21T08:40:46;5.07;;;1.77;;
51981;SDS011;37998;53.416;6.730;2022-09-21T08:43:14;6.90;;;1.80;;
51981;SDS011;37998;53.416;6.730;2022-09-21T08:45:44;9.60;;;2.53;;
51981;SDS011;37998;53.416;6.730;2022-09-21T08:48:30;8.00;;;1.92;;
51981;SDS011;37998;53.416;6.730;2022-09-21T08:50:59;9.85;;;1.92;;
51981;SDS011;37998;53.416;6.730;2022-09-21T08:56:11;4.68;;;1.25;;
51981;SDS011;37998;53.416;6.730;2022-09-21T08:58:37;5.20;;;1.50;;
51981;SDS011;37998;53.416;6.730;2022-09-21T09:09:39;3.78;;;1.83;;
51981;SDS011;37998;53.416;6.730;2022-09-21T09:14:56;8.45;;;1.70;;
51981;SDS011;37998;53.416;6.730;2022-09-21T09:17:57;9.23;;;1.83;;
51981;SDS011;37998;53.416;6.730;2022-09-21T09:20:31;7.35;;;2.22;;
51981;SDS011;37998;53.416;6.730;2022-09-21T09:25:51;4.82;;;1.55;;
51981;SDS011;37998;53.416;6.730;2022-09-21T09:28:23;7.00;;;1.42;;
51981;SDS011;37998;53.416;6.730;2022-09-21T09:31:24;6.63;;;1.67;;
51981;SDS011;37998;53.416;6.730;2022-09-21T09:34:17;6.38;;;1.55;;
51981;SDS011;37998;53.416;6.730;2022-09-21T09:36:53;11.57;;;1.40;;
51981;SDS011;37998;53.416;6.730;2022-09-21T09:39:23;8.18;;;1.60;;
51981;SDS011;37998;53.416;6.730;2022-09-21T09:44:40;6.63;;;1.50;;
51981;SDS011;37998;53.416;6.730;2022-09-21T09:47:33;3.50;;;1.25;;
51981;SDS011;37998;53.416;6.730;2022-09-21T09:52:37;10.18;;;1.60;;
51981;SDS011;37998;53.416;6.730;2022-09-21T09:55:10;6.75;;;1.40;;
51981;SDS011;37998;53.416;6.730;2022-09-21T09:57:50;4.15;;;1.45;;
51981;SDS011;37998;53.416;6.730;2022-09-21T10:00:19;4.13;;;1.40;;
51981;SDS011;37998;53.416;6.730;2022-09-21T10:02:49;5.07;;;1.52;;
51981;SDS011;37998;53.416;6.730;2022-09-21T10:05:20;5.65;;;1.90;;
51981;SDS011;37998;53.416;6.730;2022-09-21T10:07:59;5.13;;;1.50;;
51981;SDS011;37998;53.416;6.730;2022-09-21T10:13:28;2.33;;;1.08;;
51981;SDS011;37998;53.416;6.730;2022-09-21T10:15:58;4.93;;;1.30;;
51981;SDS011;37998;53.416;6.730;2022-09-21T10:21:04;4.78;;;1.40;;
51981;SDS011;37998;53.416;6.730;2022-09-21T10:23:32;3.93;;;1.57;;
51981;SDS011;37998;53.416;6.730;2022-09-21T10:26:00;8.40;;;1.48;;
51981;SDS011;37998;53.416;6.730;2022-09-21T10:28:29;6.78;;;1.42;;
51981;SDS011;37998;53.416;6.730;2022-09-21T10:31:09;5.07;;;1.30;;
51981;SDS011;37998;53.416;6.730;2022-09-21T10:33:47;5.35;;;1.08;;
51981;SDS011;37998;53.416;6.730;2022-09-21T10:36:36;11.88;;;2.15;;
51981;SDS011;37998;53.416;6.730;2022-09-21T10:39:36;3.17;;;1.38;;
51981;SDS011;37998;53.416;6.730;2022-09-21T10:44:28;6.38;;;1.17;;
51981;SDS011;37998;53.416;6.730;2022-09-21T10:47:02;4.07;;;1.30;;
51981;SDS011;37998;53.416;6.730;2022-09-21T10:49:42;5.55;;;1.25;;
51981;SDS011;37998;53.416;6.730;2022-09-21T10:52:10;5.32;;;1.33;;
51981;SDS011;37998;53.416;6.730;2022-09-21T10:54:37;7.55;;;1.65;;
51981;SDS011;37998;53.416;6.730;2022-09-21T10:57:06;3.80;;;1.25;;
51981;SDS011;37998;53.416;6.730;2022-09-21T10:59:35;7.28;;;1.30;;
51981;SDS011;37998;53.416;6.730;2022-09-21T11:02:02;7.72;;;1.30;;
51981;SDS011;37998;53.416;6.730;2022-09-21T11:05:04;8.35;;;1.10;;
51981;SDS011;37998;53.416;6.730;2022-09-21T11:13:00;9.10;;;1.98;;
51981;SDS011;37998;53.416;6.730;2022-09-21T11:27:24;4.22;;;1.70;;
51981;SDS011;37998;53.416;6.730;2022-09-21T11:30:02;3.35;;;1.30;;
51981;SDS011;37998;53.416;6.730;2022-09-21T11:35:49;6.07;;;1.08;;
51981;SDS011;37998;53.416;6.730;2022-09-21T11:38:27;3.92;;;1.25;;
51981;SDS011;37998;53.416;6.730;2022-09-21T11:41:15;5.45;;;1.20;;
51981;SDS011;37998;53.416;6.730;2022-09-21T11:49:42;4.45;;;1.20;;
51981;SDS011;37998;53.416;6.730;2022-09-21T11:58:08;5.72;;;1.42;;
51981;SDS011;37998;53.416;6.730;2022-09-21T12:00:53;4.10;;;1.20;;
51981;SDS011;37998;53.416;6.730;2022-09-21T12:03:43;4.47;;;1.42;;
51981;SDS011;37998;53.416;6.730;2022-09-21T12:24:57;2.60;;;0.98;;
51981;SDS011;37998;53.416;6.730;2022-09-21T12:27:40;7.05;;;1.40;;
51981;SDS011;37998;53.416;6.730;2022-09-21T12:30:15;4.18;;;1.20;;
51981;SDS011;37998;53.416;6.730;2022-09-21T12:38:20;4.93;;;1.10;;
51981;SDS011;37998;53.416;6.730;2022-09-21T12:47:01;8.40;;;1.30;;
51981;SDS011;37998;53.416;6.730;2022-09-21T12:49:35;7.38;;;1.42;;
51981;SDS011;37998;53.416;6.730;2022-09-21T12:52:06;3.95;;;1.33;;
51981;SDS011;37998;53.416;6.730;2022-09-21T13:00:09;7.60;;;1.60;;
51981;SDS011;37998;53.416;6.730;2022-09-21T13:08:47;4.95;;;1.23;;
51981;SDS011;37998;53.416;6.730;2022-09-21T13:11:14;6.03;;;1.30;;
51981;SDS011;37998;53.416;6.730;2022-09-21T13:14:09;5.68;;;1.23;;
51981;SDS011;37998;53.416;6.730;2022-09-21T13:16:32;4.60;;;1.20;;
51981;SDS011;37998;53.416;6.730;2022-09-21T13:21:27;3.30;;;1.10;;
51981;SDS011;37998;53.416;6.730;2022-09-21T13:31:59;5.05;;;1.60;;
51981;SDS011;37998;53.416;6.730;2022-09-21T13:34:33;4.28;;;1.23;;
51981;SDS011;37998;53.416;6.730;2022-09-21T13:39:44;3.55;;;1.25;;
51981;SDS011;37998;53.416;6.730;2022-09-21T13:44:53;6.35;;;1.67;;
51981;SDS011;37998;53.416;6.730;2022-09-21T13:49:59;6.15;;;1.13;;
51981;SDS011;37998;53.416;6.730;2022-09-21T13:52:38;4.03;;;1.33;;
51981;SDS011;37998;53.416;6.730;2022-09-21T13:58:00;4.45;;;1.38;;
51981;SDS011;37998;53.416;6.730;2022-09-21T14:06:02;4.72;;;1.20;;
51981;SDS011;37998;53.416;6.730;2022-09-21T14:08:48;4.55;;;1.20;;
51981;SDS011;37998;53.416;6.730;2022-09-21T14:11:27;10.13;;;1.45;;
51981;SDS011;37998;53.416;6.730;2022-09-21T14:16:52;3.22;;;1.10;;
51981;SDS011;37998;53.416;6.730;2022-09-21T14:29:47;5.45;;;1.30;;
51981;SDS011;37998;53.416;6.730;2022-09-21T14:32:41;3.78;;;1.30;;
51981;SDS011;37998;53.416;6.730;2022-09-21T14:35:15;3.55;;;1.20;;
51981;SDS011;37998;53.416;6.730;2022-09-21T14:42:55;6.07;;;1.20;;
51981;SDS011;37998;53.416;6.730;2022-09-21T14:51:06;2.22;;;1.00;;
51981;SDS011;37998;53.416;6.730;2022-09-21T14:56:32;5.85;;;1.27;;
51981;SDS011;37998;53.416;6.730;2022-09-21T15:01:40;2.05;;;1.00;;
51981;SDS011;37998;53.416;6.730;2022-09-21T15:18:25;5.50;;;1.20;;
51981;SDS011;37998;53.416;6.730;2022-09-21T15:23:27;6.68;;;1.30;;
51981;SDS011;37998;53.416;6.730;2022-09-21T15:25:56;4.45;;;1.27;;
51981;SDS011;37998;53.416;6.730;2022-09-21T15:28:28;6.40;;;1.27;;
51981;SDS011;37998;53.416;6.730;2022-09-21T15:31:02;5.10;;;1.67;;
51981;SDS011;37998;53.416;6.730;2022-09-21T15:33:30;5.97;;;1.40;;
51981;SDS011;37998;53.416;6.730;2022-09-21T15:36:00;6.10;;;1.30;;
51981;SDS011;37998;53.416;6.730;2022-09-21T15:38:30;7.10;;;1.15;;
51981;SDS011;37998;53.416;6.730;2022-09-21T15:40:58;2.60;;;1.10;;
51981;SDS011;37998;53.416;6.730;2022-09-21T15:43:24;5.78;;;1.20;;
51981;SDS011;37998;53.416;6.730;2022-09-21T15:45:53;6.03;;;1.25;;
51981;SDS011;37998;53.416;6.730;2022-09-21T15:48:21;7.05;;;1.33;;
51981;SDS011;37998;53.416;6.730;2022-09-21T15:50:57;4.57;;;0.82;;
51981;SDS011;37998;53.416;6.730;2022-09-21T15:53:29;5.32;;;1.08;;
51981;SDS011;37998;53.416;6.730;2022-09-21T15:55:58;3.75;;;1.30;;
51981;SDS011;37998;53.416;6.730;2022-09-21T16:00:59;5.55;;;1.65;;
51981;SDS011;37998;53.416;6.730;2022-09-21T16:03:26;3.97;;;1.02;;
51981;SDS011;37998;53.416;6.730;2022-09-21T16:05:53;4.82;;;1.83;;
51981;SDS011;37998;53.416;6.730;2022-09-21T16:14:11;11.43;;;1.55;;
51981;SDS011;37998;53.416;6.730;2022-09-21T16:22:14;4.20;;;1.40;;
51981;SDS011;37998;53.416;6.730;2022-09-21T16:27:15;2.10;;;1.00;;
51981;SDS011;37998;53.416;6.730;2022-09-21T16:29:43;2.90;;;0.98;;
51981;SDS011;37998;53.416;6.730;2022-09-21T16:34:42;4.38;;;1.17;;
51981;SDS011;37998;53.416;6.730;2022-09-21T16:39:50;3.90;;;1.00;;
51981;SDS011;37998;53.416;6.730;2022-09-21T16:42:18;4.43;;;1.00;;
51981;SDS011;37998;53.416;6.730;2022-09-21T16:44:44;3.47;;;1.10;;
51981;SDS011;37998;53.416;6.730;2022-09-21T16:47:18;7.05;;;1.20;;
51981;SDS011;37998;53.416;6.730;2022-09-21T16:49:56;5.43;;;1.60;;
51981;SDS011;37998;53.416;6.730;2022-09-21T16:52:26;3.33;;;1.05;;
51981;SDS011;37998;53.416;6.730;2022-09-21T16:54:53;4.05;;;1.23;;
51981;SDS011;37998;53.416;6.730;2022-09-21T16:57:21;4.28;;;1.50;;
51981;SDS011;37998;53.416;6.730;2022-09-21T16:59:47;3.67;;;1.40;;
51981;SDS011;37998;53.416;6.730;2022-09-21T17:02:14;4.05;;;1.40;;
51981;SDS011;37998;53.416;6.730;2022-09-21T17:04:41;9.55;;;1.60;;
51981;SDS011;37998;53.416;6.730;2022-09-21T17:07:09;8.25;;;2.03;;
51981;SDS011;37998;53.416;6.730;2022-09-21T17:09:37;8.50;;;1.70;;
51981;SDS011;37998;53.416;6.730;2022-09-21T17:12:09;7.03;;;1.27;;
51981;SDS011;37998;53.416;6.730;2022-09-21T17:14:36;4.28;;;1.30;;
51981;SDS011;37998;53.416;6.730;2022-09-21T17:19:40;4.18;;;1.48;;
51981;SDS011;37998;53.416;6.730;2022-09-21T17:22:08;6.80;;;2.65;;
51981;SDS011;37998;53.416;6.730;2022-09-21T17:24:41;8.32;;;3.65;;
51981;SDS011;37998;53.416;6.730;2022-09-21T17:27:20;5.30;;;2.60;;
51981;SDS011;37998;53.416;6.730;2022-09-21T17:29:49;5.78;;;2.30;;
51981;SDS011;37998;53.416;6.730;2022-09-21T17:32:15;6.70;;;2.42;;
51981;SDS011;37998;53.416;6.730;2022-09-21T17:34:45;5.47;;;1.58;;
51981;SDS011;37998;53.416;6.730;2022-09-21T17:37:31;5.47;;;2.17;;
51981;SDS011;37998;53.416;6.730;2022-09-21T17:39:57;10.68;;;2.25;;
51981;SDS011;37998;53.416;6.730;2022-09-21T17:42:23;6.93;;;1.38;;
51981;SDS011;37998;53.416;6.730;2022-09-21T17:47:42;3.88;;;1.40;;
51981;SDS011;37998;53.416;6.730;2022-09-21T17:52:37;7.75;;;1.35;;
51981;SDS011;37998;53.416;6.730;2022-09-21T17:55:25;4.32;;;1.50;;
51981;SDS011;37998;53.416;6.730;2022-09-21T18:03:35;4.90;;;1.20;;
51981;SDS011;37998;53.416;6.730;2022-09-21T18:06:08;3.10;;;1.05;;
51981;SDS011;37998;53.416;6.730;2022-09-21T18:08:36;6.22;;;1.38;;
51981;SDS011;37998;53.416;6.730;2022-09-21T18:13:34;3.63;;;1.33;;
51981;SDS011;37998;53.416;6.730;2022-09-21T18:25:15;5.00;;;1.70;;
51981;SDS011;37998;53.416;6.730;2022-09-21T18:27:47;5.00;;;1.83;;
51981;SDS011;37998;53.416;6.730;2022-09-21T18:30:14;6.80;;;1.95;;
51981;SDS011;37998;53.416;6.730;2022-09-21T18:32:56;5.05;;;1.63;;
51981;SDS011;37998;53.416;6.730;2022-09-21T18:35:32;7.88;;;2.40;;
51981;SDS011;37998;53.416;6.730;2022-09-21T18:38:02;6.82;;;1.90;;
51981;SDS011;37998;53.416;6.730;2022-09-21T18:40:37;9.73;;;1.98;;
51981;SDS011;37998;53.416;6.730;2022-09-21T18:45:57;6.40;;;2.40;;
51981;SDS011;37998;53.416;6.730;2022-09-21T18:51:23;8.38;;;1.55;;
51981;SDS011;37998;53.416;6.730;2022-09-21T18:53:53;5.95;;;1.90;;
51981;SDS011;37998;53.416;6.730;2022-09-21T18:56:41;5.22;;;1.90;;
51981;SDS011;37998;53.416;6.730;2022-09-21T18:59:07;4.78;;;1.90;;
51981;SDS011;37998;53.416;6.730;2022-09-21T19:01:36;5.65;;;2.10;;
51981;SDS011;37998;53.416;6.730;2022-09-21T19:04:02;4.32;;;2.25;;
51981;SDS011;37998;53.416;6.730;2022-09-21T19:06:30;5.05;;;2.00;;
51981;SDS011;37998;53.416;6.730;2022-09-21T19:11:47;6.78;;;2.08;;
51981;SDS011;37998;53.416;6.730;2022-09-21T19:19:35;6.43;;;1.98;;
51981;SDS011;37998;53.416;6.730;2022-09-21T19:25:04;4.43;;;1.83;;
51981;SDS011;37998;53.416;6.730;2022-09-21T19:27:42;2.75;;;1.50;;
51981;SDS011;37998;53.416;6.730;2022-09-21T19:30:15;6.05;;;2.05;;
51981;SDS011;37998;53.416;6.730;2022-09-21T19:35:21;6.93;;;2.35;;
51981;SDS011;37998;53.416;6.730;2022-09-21T19:37:49;5.65;;;1.75;;
51981;SDS011;37998;53.416;6.730;2022-09-21T19:40:16;4.55;;;1.90;;
51981;SDS011;37998;53.416;6.730;2022-09-21T19:45:46;3.53;;;1.40;;
51981;SDS011;37998;53.416;6.730;2022-09-21T19:48:43;3.45;;;1.70;;